sensor_id;sensor_type;location;lat;lon;timestamp;pressure;altitude;pressure_sealevel;temperature;humidity
25759;BME280;13604;52.496;13.456;2023-06-05T00:00:44;101751.84;;;12.89;49.42
25759;BME280;13604;52.496;13.456;2023-06-05T00:03:09;101700.50;;;12.57;49.28
25759;BME280;13604;52.496;13.456;2023-06-05T00:05:34;101687.94;;;12.50;49.29
25759;BME280;13604;52.496;13.456;2023-06-05T00:08:01;101779.50;;;13.02;49.30
25759;BME280;13604;52.496;13.456;2023-06-05T00:10:26;101784.88;;;13.05;49.00
25759;BME280;13604;52.496;13.456;2023-06-05T00:12:52;101725.94;;;12.78;48.90
25759;BME280;13604;52.496;13.456;2023-06-05T00:15:18;101794.88;;;13.13;48.48
25759;BME280;13604;52.496;13.456;2023-06-05T00:17:43;101747.06;;;12.99;48.25
25759;BME280;13604;52.496;13.456;2023-06-05T00:20:09;101751.00;;;12.91;48.65
25759;BME280;13604;52.496;13.456;2023-06-05T00:22:35;101784.84;;;13.22;48.40
25759;BME280;13604;52.496;13.456;2023-06-05T00:25:01;101734.44;;;12.90;48.35
25759;BME280;13604;52.496;13.456;2023-06-05T00:27:28;101783.09;;;13.21;48.62
25759;BME280;13604;52.496;13.456;2023-06-05T00:29:53;101790.53;;;13.13;48.68
25759;BME280;13604;52.496;13.456;2023-06-05T00:32:18;101709.72;;;12.67;49.05
25759;BME280;13604;52.496;13.456;2023-06-05T00:34:44;101719.34;;;12.68;49.04
25759;BME280;13604;52.496;13.456;2023-06-05T00:37:10;101750.63;;;12.83;49.06
25759;BME280;13604;52.496;13.456;2023-06-05T00:39:36;101744.66;;;12.69;49.24
25759;BME280;13604;52.496;13.456;2023-06-05T00:42:01;101778.06;;;12.91;50.02
25759;BME280;13604;52.496;13.456;2023-06-05T00:44:27;101731.09;;;12.60;50.65
25759;BME280;13604;52.496;13.456;2023-06-05T00:46:52;101748.50;;;12.59;50.84
25759;BME280;13604;52.496;13.456;2023-06-05T00:49:18;101713.81;;;12.29;50.86
25759;BME280;13604;52.496;13.456;2023-06-05T00:51:45;101756.44;;;12.61;51.06
25759;BME280;13604;52.496;13.456;2023-06-05T00:54:12;101766.53;;;12.55;51.14
25759;BME280;13604;52.496;13.456;2023-06-05T00:56:39;101707.91;;;12.17;50.96
25759;BME280;13604;52.496;13.456;2023-06-05T00:59:07;101740.91;;;12.31;51.04
25759;BME280;13604;52.496;13.456;2023-06-05T01:01:32;101646.31;;;11.72;51.25
25759;BME280;13604;52.496;13.456;2023-06-05T01:04:00;101754.88;;;12.31;52.11
25759;BME280;13604;52.496;13.456;2023-06-05T01:06:26;101734.44;;;12.08;52.22
25759;BME280;13604;52.496;13.456;2023-06-05T01:08:53;101774.94;;;12.32;52.46
25759;BME280;13604;52.496;13.456;2023-06-05T01:11:31;101782.78;;;12.32;52.50
25759;BME280;13604;52.496;13.456;2023-06-05T01:14:06;101782.53;;;12.28;53.28
25759;BME280;13604;52.496;13.456;2023-06-05T01:16:33;101704.09;;;11.78;53.19
25759;BME280;13604;52.496;13.456;2023-06-05T01:19:00;101626.84;;;11.34;52.97
25759;BME280;13604;52.496;13.456;2023-06-05T01:21:31;101777.97;;;12.24;52.89
25759;BME280;13604;52.496;13.456;2023-06-05T01:23:57;101603.84;;;11.27;53.04
25759;BME280;13604;52.496;13.456;2023-06-05T01:26:28;101650.94;;;11.45;53.02
25759;BME280;13604;52.496;13.456;2023-06-05T01:28:56;101592.09;;;11.19;53.12
25759;BME280;13604;52.496;13.456;2023-06-05T01:31:22;101761.78;;;12.14;53.21
25759;BME280;13604;52.496;13.456;2023-06-05T01:33:57;101771.75;;;12.22;52.97
25759;BME280;13604;52.496;13.456;2023-06-05T01:36:28;101763.50;;;12.14;53.55
25759;BME280;13604;52.496;13.456;2023-06-05T01:38:54;101717.22;;;11.80;53.16
25759;BME280;13604;52.496;13.456;2023-06-05T01:41:20;101759.56;;;12.06;53.29
25759;BME280;13604;52.496;13.456;2023-06-05T01:43:46;101773.88;;;12.12;53.52
25759;BME280;13604;52.496;13.456;2023-06-05T01:46:14;101506.38;;;10.62;53.58
25759;BME280;13604;52.496;13.456;2023-06-05T01:48:40;101744.28;;;11.97;53.94
25759;BME280;13604;52.496;13.456;2023-06-05T01:51:06;101625.25;;;11.21;53.02
25759;BME280;13604;52.496;13.456;2023-06-05T01:53:31;101702.00;;;11.56;52.71
25759;BME280;13604;52.496;13.456;2023-06-05T01:55:57;101695.81;;;11.71;52.65
25759;BME280;13604;52.496;13.456;2023-06-05T01:58:23;101691.34;;;11.68;52.61
25759;BME280;13604;52.496;13.456;2023-06-05T02:00:48;101693.13;;;11.69;53.09
25759;BME280;13604;52.496;13.456;2023-06-05T02:03:14;101707.72;;;11.66;52.68
25759;BME280;13604;52.496;13.456;2023-06-05T02:05:43;101685.09;;;11.50;52.53
25759;BME280;13604;52.496;13.456;2023-06-05T02:08:08;101741.94;;;12.02;52.17
25759;BME280;13604;52.496;13.456;2023-06-05T02:10:38;101729.06;;;11.90;52.21
25759;BME280;13604;52.496;13.456;2023-06-05T02:13:05;101760.81;;;12.12;51.87
25759;BME280;13604;52.496;13.456;2023-06-05T02:15:31;101748.38;;;12.08;52.33
25759;BME280;13604;52.496;13.456;2023-06-05T02:17:59;101731.81;;;11.91;51.89
25759;BME280;13604;52.496;13.456;2023-06-05T02:20:26;101755.84;;;12.17;51.92
25759;BME280;13604;52.496;13.456;2023-06-05T02:22:51;101744.88;;;12.08;52.10
25759;BME280;13604;52.496;13.456;2023-06-05T02:25:18;101751.91;;;12.09;52.11
25759;BME280;13604;52.496;13.456;2023-06-05T02:27:43;101742.28;;;12.08;52.31
25759;BME280;13604;52.496;13.456;2023-06-05T02:30:09;101738.78;;;12.07;52.01
25759;BME280;13604;52.496;13.456;2023-06-05T02:32:37;101594.03;;;11.23;52.03
25759;BME280;13604;52.496;13.456;2023-06-05T02:35:08;101574.78;;;11.04;52.22
25759;BME280;13604;52.496;13.456;2023-06-05T02:37:33;101727.81;;;11.98;52.17
25759;BME280;13604;52.496;13.456;2023-06-05T02:40:12;101719.34;;;11.87;52.15
25759;BME280;13604;52.496;13.456;2023-06-05T02:42:39;101687.94;;;11.86;51.58
25759;BME280;13604;52.496;13.456;2023-06-05T02:45:04;101748.47;;;12.10;51.96
25759;BME280;13604;52.496;13.456;2023-06-05T02:47:31;101671.19;;;11.66;52.08
25759;BME280;13604;52.496;13.456;2023-06-05T02:49:59;101616.16;;;11.30;51.85
25759;BME280;13604;52.496;13.456;2023-06-05T02:52:25;101657.31;;;11.50;52.42
25759;BME280;13604;52.496;13.456;2023-06-05T02:54:51;101689.97;;;11.75;52.24
25759;BME280;13604;52.496;13.456;2023-06-05T02:57:16;101664.38;;;11.53;52.77
25759;BME280;13604;52.496;13.456;2023-06-05T02:59:42;101591.47;;;11.08;52.44
25759;BME280;13604;52.496;13.456;2023-06-05T03:02:09;101634.53;;;11.16;52.92
25759;BME280;13604;52.496;13.456;2023-06-05T03:04:35;101706.13;;;11.53;53.48
25759;BME280;13604;52.496;13.456;2023-06-05T03:07:01;101711.16;;;11.65;53.01
25759;BME280;13604;52.496;13.456;2023-06-05T03:09:30;101736.72;;;11.87;53.16
25759;BME280;13604;52.496;13.456;2023-06-05T03:11:56;101731.81;;;11.76;53.46
25759;BME280;13604;52.496;13.456;2023-06-05T03:14:21;101721.81;;;11.69;53.98
25759;BME280;13604;52.496;13.456;2023-06-05T03:16:47;101633.44;;;11.13;53.50
25759;BME280;13604;52.496;13.456;2023-06-05T03:19:12;101569.06;;;10.65;53.53
25759;BME280;13604;52.496;13.456;2023-06-05T03:21:38;101689.78;;;11.40;53.50
25759;BME280;13604;52.496;13.456;2023-06-05T03:24:11;101679.00;;;11.34;53.83
25759;BME280;13604;52.496;13.456;2023-06-05T03:26:38;101736.16;;;11.76;53.29
25759;BME280;13604;52.496;13.456;2023-06-05T03:29:04;101690.22;;;11.48;52.80
25759;BME280;13604;52.496;13.456;2023-06-05T03:31:30;101696.31;;;11.64;52.55
25759;BME280;13604;52.496;13.456;2023-06-05T03:33:56;101707.00;;;11.68;52.71
25759;BME280;13604;52.496;13.456;2023-06-05T03:36:23;101641.06;;;11.24;53.09
25759;BME280;13604;52.496;13.456;2023-06-05T03:38:48;101739.16;;;11.84;54.04
25759;BME280;13604;52.496;13.456;2023-06-05T03:41:14;101705.84;;;11.63;54.23
25759;BME280;13604;52.496;13.456;2023-06-05T03:43:39;101710.16;;;11.63;53.66
25759;BME280;13604;52.496;13.456;2023-06-05T03:46:04;101707.47;;;11.46;54.49
25759;BME280;13604;52.496;13.456;2023-06-05T03:48:30;101728.59;;;11.66;54.88
25759;BME280;13604;52.496;13.456;2023-06-05T03:50:56;101736.16;;;11.76;55.11
25759;BME280;13604;52.496;13.456;2023-06-05T03:53:23;101736.19;;;11.77;55.23
25759;BME280;13604;52.496;13.456;2023-06-05T03:55:48;101667.03;;;11.38;54.92
25759;BME280;13604;52.496;13.456;2023-06-05T03:58:15;101624.19;;;11.18;55.28
25759;BME280;13604;52.496;13.456;2023-06-05T04:00:41;101722.19;;;11.75;55.13
25759;BME280;13604;52.496;13.456;2023-06-05T04:03:10;101713.84;;;11.66;54.91
25759;BME280;13604;52.496;13.456;2023-06-05T04:05:38;101745.22;;;11.83;55.71
25759;BME280;13604;52.496;13.456;2023-06-05T04:08:04;101703.66;;;11.71;55.39
25759;BME280;13604;52.496;13.456;2023-06-05T04:10:30;101682.13;;;11.44;54.87
25759;BME280;13604;52.496;13.456;2023-06-05T04:12:55;101744.06;;;11.92;55.20
25759;BME280;13604;52.496;13.456;2023-06-05T04:15:22;101742.41;;;11.94;55.29
25759;BME280;13604;52.496;13.456;2023-06-05T04:17:48;101752.53;;;12.05;55.02
25759;BME280;13604;52.496;13.456;2023-06-05T04:20:13;101728.97;;;12.03;54.74
25759;BME280;13604;52.496;13.456;2023-06-05T04:22:42;101733.47;;;12.06;53.91
25759;BME280;13604;52.496;13.456;2023-06-05T04:25:08;101717.53;;;12.01;53.77
25759;BME280;13604;52.496;13.456;2023-06-05T04:27:37;101738.72;;;12.22;53.92
25759;BME280;13604;52.496;13.456;2023-06-05T04:30:03;101735.09;;;12.20;52.99
25759;BME280;13604;52.496;13.456;2023-06-05T04:32:30;101693.91;;;12.14;53.18
25759;BME280;13604;52.496;13.456;2023-06-05T04:34:59;101718.63;;;12.38;53.30
25759;BME280;13604;52.496;13.456;2023-06-05T04:37:24;101712.81;;;12.43;53.07
25759;BME280;13604;52.496;13.456;2023-06-05T04:39:50;101755.44;;;12.75;53.31
25759;BME280;13604;52.496;13.456;2023-06-05T04:42:16;101744.25;;;12.78;53.55
25759;BME280;13604;52.496;13.456;2023-06-05T04:44:42;101731.94;;;12.59;52.91
25759;BME280;13604;52.496;13.456;2023-06-05T04:47:08;101698.44;;;12.51;52.14
25759;BME280;13604;52.496;13.456;2023-06-05T04:49:33;101767.19;;;12.83;52.84
25759;BME280;13604;52.496;13.456;2023-06-05T04:51:58;101637.66;;;12.21;52.16
25759;BME280;13604;52.496;13.456;2023-06-05T04:54:24;101723.91;;;12.88;52.87
25759;BME280;13604;52.496;13.456;2023-06-05T04:56:50;101738.91;;;12.93;51.53
25759;BME280;13604;52.496;13.456;2023-06-05T04:59:15;101737.91;;;13.07;51.49
25759;BME280;13604;52.496;13.456;2023-06-05T05:01:40;101743.25;;;13.26;52.87
25759;BME280;13604;52.496;13.456;2023-06-05T05:04:06;101666.84;;;12.98;53.19
25759;BME280;13604;52.496;13.456;2023-06-05T05:06:31;101688.00;;;13.20;52.37
25759;BME280;13604;52.496;13.456;2023-06-05T05:08:56;101744.81;;;13.57;51.97
25759;BME280;13604;52.496;13.456;2023-06-05T05:11:22;101723.09;;;13.60;51.33
25759;BME280;13604;52.496;13.456;2023-06-05T05:13:47;101728.78;;;13.69;49.97
25759;BME280;13604;52.496;13.456;2023-06-05T05:16:12;101733.56;;;13.78;49.80
25759;BME280;13604;52.496;13.456;2023-06-05T05:18:40;101736.09;;;13.76;49.23
25759;BME280;13604;52.496;13.456;2023-06-05T05:21:06;101655.97;;;13.42;48.76
25759;BME280;13604;52.496;13.456;2023-06-05T05:23:32;101755.66;;;14.03;49.06
25759;BME280;13604;52.496;13.456;2023-06-05T05:25:58;101719.78;;;14.00;49.64
25759;BME280;13604;52.496;13.456;2023-06-05T05:28:23;101697.66;;;13.93;49.37
25759;BME280;13604;52.496;13.456;2023-06-05T05:30:49;101730.69;;;14.29;49.81
25759;BME280;13604;52.496;13.456;2023-06-05T05:33:15;101742.69;;;14.43;49.51
25759;BME280;13604;52.496;13.456;2023-06-05T05:35:40;101735.19;;;14.51;49.68
25759;BME280;13604;52.496;13.456;2023-06-05T05:38:06;101746.38;;;14.66;49.80
25759;BME280;13604;52.496;13.456;2023-06-05T05:40:31;101733.63;;;14.74;49.58
25759;BME280;13604;52.496;13.456;2023-06-05T05:42:56;101756.56;;;14.99;49.14
25759;BME280;13604;52.496;13.456;2023-06-05T05:45:22;101755.38;;;15.12;48.69
25759;BME280;13604;52.496;13.456;2023-06-05T05:47:47;101671.50;;;14.73;48.07
25759;BME280;13604;52.496;13.456;2023-06-05T05:50:12;101756.41;;;15.37;47.58
25759;BME280;13604;52.496;13.456;2023-06-05T05:52:38;101739.78;;;15.36;46.99
25759;BME280;13604;52.496;13.456;2023-06-05T05:55:04;101729.22;;;15.35;46.40
25759;BME280;13604;52.496;13.456;2023-06-05T05:57:30;101765.63;;;15.69;46.17
25759;BME280;13604;52.496;13.456;2023-06-05T05:59:55;101757.47;;;15.63;45.94
25759;BME280;13604;52.496;13.456;2023-06-05T06:02:20;101688.16;;;15.37;45.83
25759;BME280;13604;52.496;13.456;2023-06-05T06:04:46;101753.06;;;15.83;46.02
25759;BME280;13604;52.496;13.456;2023-06-05T06:07:12;101774.03;;;16.04;45.65
25759;BME280;13604;52.496;13.456;2023-06-05T06:09:38;101734.25;;;15.74;44.99
25759;BME280;13604;52.496;13.456;2023-06-05T06:12:04;101777.25;;;16.19;45.42
25759;BME280;13604;52.496;13.456;2023-06-05T06:14:32;101723.69;;;15.93;45.85
25759;BME280;13604;52.496;13.456;2023-06-05T06:16:57;101768.47;;;16.42;45.46
25759;BME280;13604;52.496;13.456;2023-06-05T06:19:23;101770.81;;;16.58;45.35
25759;BME280;13604;52.496;13.456;2023-06-05T06:21:49;101747.75;;;16.51;44.65
25759;BME280;13604;52.496;13.456;2023-06-05T06:24:16;101734.88;;;16.59;44.40
25759;BME280;13604;52.496;13.456;2023-06-05T06:26:45;101706.66;;;16.53;42.95
25759;BME280;13604;52.496;13.456;2023-06-05T06:29:10;101669.84;;;16.29;43.03
25759;BME280;13604;52.496;13.456;2023-06-05T06:31:35;101653.59;;;16.41;42.93
25759;BME280;13604;52.496;13.456;2023-06-05T06:34:01;101638.19;;;16.50;43.36
25759;BME280;13604;52.496;13.456;2023-06-05T06:36:26;101713.84;;;17.08;43.31
25759;BME280;13604;52.496;13.456;2023-06-05T06:38:52;101723.94;;;17.22;42.68
25759;BME280;13604;52.496;13.456;2023-06-05T06:41:17;101741.41;;;17.45;42.82
25759;BME280;13604;52.496;13.456;2023-06-05T06:43:43;101732.97;;;17.56;42.67
25759;BME280;13604;52.496;13.456;2023-06-05T06:46:08;101700.22;;;17.47;42.76
25759;BME280;13604;52.496;13.456;2023-06-05T06:48:33;101704.81;;;17.55;41.88
25759;BME280;13604;52.496;13.456;2023-06-05T06:50:59;101815.41;;;18.06;41.72
25759;BME280;13604;52.496;13.456;2023-06-05T06:53:25;101760.53;;;17.93;41.87
25759;BME280;13604;52.496;13.456;2023-06-05T06:55:50;101717.88;;;17.79;40.94
25759;BME280;13604;52.496;13.456;2023-06-05T06:58:15;101784.28;;;18.23;42.10
25759;BME280;13604;52.496;13.456;2023-06-05T07:00:41;101678.94;;;17.69;40.40
25759;BME280;13604;52.496;13.456;2023-06-05T07:03:07;101671.88;;;17.67;40.07
25759;BME280;13604;52.496;13.456;2023-06-05T07:05:33;101789.13;;;18.38;40.38
25759;BME280;13604;52.496;13.456;2023-06-05T07:07:59;101803.72;;;18.55;40.62
25759;BME280;13604;52.496;13.456;2023-06-05T07:10:27;101753.59;;;18.55;40.92
25759;BME280;13604;52.496;13.456;2023-06-05T07:12:53;101735.50;;;18.69;39.71
25759;BME280;13604;52.496;13.456;2023-06-05T07:15:18;101782.97;;;18.98;38.50
25759;BME280;13604;52.496;13.456;2023-06-05T07:17:43;101725.28;;;18.82;38.72
25759;BME280;13604;52.496;13.456;2023-06-05T07:20:09;101674.50;;;18.57;38.04
25759;BME280;13604;52.496;13.456;2023-06-05T07:22:36;101742.78;;;19.10;38.96
25759;BME280;13604;52.496;13.456;2023-06-05T07:25:01;101795.09;;;19.60;38.31
25759;BME280;13604;52.496;13.456;2023-06-05T07:27:28;101784.91;;;19.75;37.43
25759;BME280;13604;52.496;13.456;2023-06-05T07:29:53;101739.91;;;19.72;38.13
25759;BME280;13604;52.496;13.456;2023-06-05T07:32:19;101651.88;;;19.37;36.96
25759;BME280;13604;52.496;13.456;2023-06-05T07:34:46;101785.16;;;20.24;37.55
25759;BME280;13604;52.496;13.456;2023-06-05T07:37:13;101776.56;;;20.34;35.57
25759;BME280;13604;52.496;13.456;2023-06-05T07:39:38;101787.16;;;20.36;35.40
25759;BME280;13604;52.496;13.456;2023-06-05T07:42:04;101744.31;;;20.11;35.03
25759;BME280;13604;52.496;13.456;2023-06-05T07:44:30;101732.78;;;20.08;35.20
25759;BME280;13604;52.496;13.456;2023-06-05T07:46:56;101630.50;;;19.64;34.75
25759;BME280;13604;52.496;13.456;2023-06-05T07:49:23;101668.56;;;20.12;35.91
25759;BME280;13604;52.496;13.456;2023-06-05T07:51:49;101663.28;;;20.13;34.19
25759;BME280;13604;52.496;13.456;2023-06-05T07:54:16;101763.38;;;20.78;33.96
25759;BME280;13604;52.496;13.456;2023-06-05T07:56:41;101686.09;;;20.52;33.86
25759;BME280;13604;52.496;13.456;2023-06-05T07:59:07;101743.50;;;21.01;33.00
25759;BME280;13604;52.496;13.456;2023-06-05T08:01:34;101771.41;;;21.32;32.48
25759;BME280;13604;52.496;13.456;2023-06-05T08:04:04;101788.44;;;21.45;31.94
25759;BME280;13604;52.496;13.456;2023-06-05T08:06:30;101692.94;;;21.39;31.29
25759;BME280;13604;52.496;13.456;2023-06-05T08:08:56;101680.91;;;21.61;30.25
25759;BME280;13604;52.496;13.456;2023-06-05T08:11:21;101773.31;;;23.43;29.54
25759;BME280;13604;52.496;13.456;2023-06-05T08:13:47;101741.88;;;24.14;29.64
25759;BME280;13604;52.496;13.456;2023-06-05T08:16:12;101762.53;;;24.59;27.29
25759;BME280;13604;52.496;13.456;2023-06-05T08:18:38;101764.41;;;25.19;26.67
25759;BME280;13604;52.496;13.456;2023-06-05T08:21:03;101729.78;;;25.45;26.14
25759;BME280;13604;52.496;13.456;2023-06-05T08:23:28;101760.63;;;26.51;25.81
25759;BME280;13604;52.496;13.456;2023-06-05T08:25:55;101650.53;;;25.97;25.80
25759;BME280;13604;52.496;13.456;2023-06-05T08:28:20;101739.03;;;26.96;24.51
25759;BME280;13604;52.496;13.456;2023-06-05T08:30:45;101643.31;;;26.19;24.88
25759;BME280;13604;52.496;13.456;2023-06-05T08:33:11;101735.81;;;27.62;24.88
25759;BME280;13604;52.496;13.456;2023-06-05T08:35:40;101636.91;;;27.54;23.76
25759;BME280;13604;52.496;13.456;2023-06-05T08:38:05;101745.84;;;28.91;23.13
25759;BME280;13604;52.496;13.456;2023-06-05T08:40:30;101741.03;;;29.13;21.99
25759;BME280;13604;52.496;13.456;2023-06-05T08:42:59;101694.69;;;29.58;21.13
25759;BME280;13604;52.496;13.456;2023-06-05T08:45:25;101702.56;;;30.12;20.84
25759;BME280;13604;52.496;13.456;2023-06-05T08:47:54;101615.19;;;29.96;21.04
25759;BME280;13604;52.496;13.456;2023-06-05T08:50:21;101725.59;;;30.24;19.53
25759;BME280;13604;52.496;13.456;2023-06-05T08:52:48;101694.44;;;29.70;20.31
25759;BME280;13604;52.496;13.456;2023-06-05T08:55:15;101727.63;;;30.55;20.08
25759;BME280;13604;52.496;13.456;2023-06-05T08:57:41;101748.47;;;30.84;19.91
25759;BME280;13604;52.496;13.456;2023-06-05T09:00:08;101738.97;;;30.27;19.98
25759;BME280;13604;52.496;13.456;2023-06-05T09:02:37;101740.94;;;31.36;19.47
25759;BME280;13604;52.496;13.456;2023-06-05T09:05:04;101726.34;;;32.10;19.21
25759;BME280;13604;52.496;13.456;2023-06-05T09:07:29;101712.53;;;32.81;18.77
25759;BME280;13604;52.496;13.456;2023-06-05T09:09:57;101733.50;;;33.53;18.34
25759;BME280;13604;52.496;13.456;2023-06-05T09:12:22;101710.25;;;32.09;17.44
25759;BME280;13604;52.496;13.456;2023-06-05T09:14:49;101726.94;;;33.35;18.15
25759;BME280;13604;52.496;13.456;2023-06-05T09:17:15;101701.22;;;33.75;17.55
25759;BME280;13604;52.496;13.456;2023-06-05T09:19:42;101717.22;;;33.56;17.04
25759;BME280;13604;52.496;13.456;2023-06-05T09:22:12;101712.78;;;34.04;16.87
25759;BME280;13604;52.496;13.456;2023-06-05T09:24:39;101696.44;;;34.07;16.76
25759;BME280;13604;52.496;13.456;2023-06-05T09:27:08;101734.66;;;34.45;16.98
25759;BME280;13604;52.496;13.456;2023-06-05T09:29:39;101746.81;;;35.23;16.29
25759;BME280;13604;52.496;13.456;2023-06-05T09:32:16;101743.22;;;34.33;16.19
25759;BME280;13604;52.496;13.456;2023-06-05T09:34:43;101739.28;;;33.42;16.80
25759;BME280;13604;52.496;13.456;2023-06-05T09:37:11;101741.91;;;33.96;16.36
25759;BME280;13604;52.496;13.456;2023-06-05T09:39:41;101723.16;;;35.06;16.63
25759;BME280;13604;52.496;13.456;2023-06-05T09:42:11;101693.63;;;35.43;15.36
25759;BME280;13604;52.496;13.456;2023-06-05T09:44:36;101717.13;;;34.99;15.53
25759;BME280;13604;52.496;13.456;2023-06-05T09:49:46;101659.88;;;34.88;14.73
25759;BME280;13604;52.496;13.456;2023-06-05T09:52:13;101712.75;;;36.00;14.90
25759;BME280;13604;52.496;13.456;2023-06-05T09:54:40;101718.69;;;35.27;15.34
25759;BME280;13604;52.496;13.456;2023-06-05T09:57:07;101723.41;;;35.84;15.34
25759;BME280;13604;52.496;13.456;2023-06-05T09:59:45;101710.72;;;36.62;14.83
25759;BME280;13604;52.496;13.456;2023-06-05T10:02:15;101741.88;;;37.09;13.95
25759;BME280;13604;52.496;13.456;2023-06-05T10:07:13;101719.75;;;36.81;14.25
25759;BME280;13604;52.496;13.456;2023-06-05T10:09:39;101691.06;;;35.60;14.72
25759;BME280;13604;52.496;13.456;2023-06-05T10:12:07;101659.91;;;33.97;15.46
25759;BME280;13604;52.496;13.456;2023-06-05T10:14:35;101661.19;;;33.86;15.37
25759;BME280;13604;52.496;13.456;2023-06-05T10:17:01;101670.91;;;35.66;15.75
25759;BME280;13604;52.496;13.456;2023-06-05T10:19:27;101708.81;;;36.45;15.03
25759;BME280;13604;52.496;13.456;2023-06-05T10:21:52;101669.25;;;37.31;14.61
25759;BME280;13604;52.496;13.456;2023-06-05T10:24:30;101663.28;;;38.07;14.06
25759;BME280;13604;52.496;13.456;2023-06-05T10:33:00;101659.25;;;39.82;12.60
25759;BME280;13604;52.496;13.456;2023-06-05T10:35:45;101662.91;;;39.24;13.16
25759;BME280;13604;52.496;13.456;2023-06-05T10:38:21;101681.31;;;39.34;12.99
25759;BME280;13604;52.496;13.456;2023-06-05T10:40:58;101685.41;;;40.01;12.52
25759;BME280;13604;52.496;13.456;2023-06-05T10:43:32;101657.72;;;39.78;12.36
25759;BME280;13604;52.496;13.456;2023-06-05T10:45:59;101667.16;;;39.87;11.84
25759;BME280;13604;52.496;13.456;2023-06-05T10:59:30;101659.28;;;39.53;12.89
25759;BME280;13604;52.496;13.456;2023-06-05T11:07:18;101648.25;;;38.96;12.57
25759;BME280;13604;52.496;13.456;2023-06-05T11:10:07;101646.97;;;40.18;12.64
25759;BME280;13604;52.496;13.456;2023-06-05T11:15:16;101648.31;;;40.25;11.97
25759;BME280;13604;52.496;13.456;2023-06-05T11:20:56;101658.75;;;36.89;13.29
25759;BME280;13604;52.496;13.456;2023-06-05T11:23:22;101653.72;;;37.51;13.71
25759;BME280;13604;52.496;13.456;2023-06-05T11:25:55;101643.75;;;40.11;12.34
25759;BME280;13604;52.496;13.456;2023-06-05T11:28:37;101663.28;;;41.66;11.63
25759;BME280;13604;52.496;13.456;2023-06-05T11:31:03;101641.66;;;42.13;11.22
25759;BME280;13604;52.496;13.456;2023-06-05T11:33:29;101657.59;;;42.80;11.00
25759;BME280;13604;52.496;13.456;2023-06-05T11:36:00;101614.88;;;43.35;10.96
25759;BME280;13604;52.496;13.456;2023-06-05T11:38:25;101600.19;;;43.25;10.53
25759;BME280;13604;52.496;13.456;2023-06-05T11:40:51;101627.22;;;42.83;10.57
25759;BME280;13604;52.496;13.456;2023-06-05T11:43:17;101546.91;;;42.47;10.45
25759;BME280;13604;52.496;13.456;2023-06-05T11:45:52;101584.78;;;43.47;10.29
25759;BME280;13604;52.496;13.456;2023-06-05T11:48:18;101589.91;;;44.18;10.34
25759;BME280;13604;52.496;13.456;2023-06-05T11:50:58;101635.09;;;44.57;9.93
25759;BME280;13604;52.496;13.456;2023-06-05T11:53:25;101630.63;;;43.79;9.95
25759;BME280;13604;52.496;13.456;2023-06-05T11:55:51;101628.94;;;44.65;9.99
25759;BME280;13604;52.496;13.456;2023-06-05T11:58:24;101609.25;;;44.60;9.46
25759;BME280;13604;52.496;13.456;2023-06-05T12:00:51;101627.34;;;44.83;9.98
25759;BME280;13604;52.496;13.456;2023-06-05T12:03:20;101605.38;;;45.05;9.90
25759;BME280;13604;52.496;13.456;2023-06-05T12:05:49;101619.41;;;44.69;8.88
25759;BME280;13604;52.496;13.456;2023-06-05T12:08:26;101625.81;;;42.66;9.90
25759;BME280;13604;52.496;13.456;2023-06-05T12:10:53;101602.19;;;43.34;9.81
25759;BME280;13604;52.496;13.456;2023-06-05T12:13:18;101605.69;;;41.43;10.33
25759;BME280;13604;52.496;13.456;2023-06-05T12:15:55;101620.09;;;43.16;10.12
25759;BME280;13604;52.496;13.456;2023-06-05T12:18:21;101609.78;;;44.42;9.88
25759;BME280;13604;52.496;13.456;2023-06-05T12:20:46;101613.66;;;43.73;10.09
25759;BME280;13604;52.496;13.456;2023-06-05T12:23:18;101603.06;;;43.35;10.45
25759;BME280;13604;52.496;13.456;2023-06-05T12:25:44;101603.75;;;43.03;10.36
25759;BME280;13604;52.496;13.456;2023-06-05T12:28:19;101591.91;;;41.32;11.45
25759;BME280;13604;52.496;13.456;2023-06-05T12:30:45;101601.91;;;39.98;12.55
25759;BME280;13604;52.496;13.456;2023-06-05T12:33:10;101611.03;;;42.07;11.45
25759;BME280;13604;52.496;13.456;2023-06-05T12:35:35;101561.44;;;43.07;11.00
25759;BME280;13604;52.496;13.456;2023-06-05T12:38:01;101586.47;;;43.25;10.32
25759;BME280;13604;52.496;13.456;2023-06-05T12:40:27;101538.38;;;44.75;9.98
25759;BME280;13604;52.496;13.456;2023-06-05T12:42:52;101576.00;;;45.05;9.49
25759;BME280;13604;52.496;13.456;2023-06-05T12:45:18;101567.63;;;45.07;9.10
25759;BME280;13604;52.496;13.456;2023-06-05T12:47:43;101566.97;;;45.45;8.92
25759;BME280;13604;52.496;13.456;2023-06-05T12:50:10;101591.84;;;45.94;8.98
25759;BME280;13604;52.496;13.456;2023-06-05T12:52:39;101555.09;;;45.95;9.08
25759;BME280;13604;52.496;13.456;2023-06-05T12:55:05;101579.28;;;45.91;9.30
25759;BME280;13604;52.496;13.456;2023-06-05T12:57:31;101576.78;;;43.55;9.20
25759;BME280;13604;52.496;13.456;2023-06-05T12:59:57;101541.59;;;43.94;9.38
25759;BME280;13604;52.496;13.456;2023-06-05T13:02:23;101573.38;;;41.87;10.56
25759;BME280;13604;52.496;13.456;2023-06-05T13:04:49;101543.13;;;41.51;10.75
25759;BME280;13604;52.496;13.456;2023-06-05T13:07:14;101539.91;;;39.87;11.31
25759;BME280;13604;52.496;13.456;2023-06-05T13:09:41;101545.00;;;41.25;11.04
25759;BME280;13604;52.496;13.456;2023-06-05T13:12:07;101556.56;;;42.99;10.69